sensor_id;sensor_type;location;lat;lon;timestamp;P1;durP1;ratioP1;P2;durP2;ratioP2
35644;SDS011;21764;52.042;6.830;2023-07-24T00:02:38;6.63;;;3.78;;
35644;SDS011;21764;52.042;6.830;2023-07-24T00:07:39;6.47;;;4.13;;
35644;SDS011;21764;52.042;6.830;2023-07-24T00:12:39;6.03;;;4.13;;
35644;SDS011;21764;52.042;6.830;2023-07-24T00:17:40;5.15;;;3.53;;
35644;SDS011;21764;52.042;6.830;2023-07-24T00:22:41;4.75;;;3.67;;
35644;SDS011;21764;52.042;6.830;2023-07-24T00:27:41;5.10;;;4.05;;
35644;SDS011;21764;52.042;6.830;2023-07-24T00:32:42;6.25;;;3.88;;
35644;SDS011;21764;52.042;6.830;2023-07-24T00:37:43;7.60;;;4.25;;
35644;SDS011;21764;52.042;6.830;2023-07-24T00:42:47;7.15;;;4.38;;
35644;SDS011;21764;52.042;6.830;2023-07-24T00:47:48;5.93;;;3.72;;
35644;SDS011;21764;52.042;6.830;2023-07-24T00:52:49;6.93;;;4.10;;
35644;SDS011;21764;52.042;6.830;2023-07-24T00:57:50;6.05;;;3.70;;
35644;SDS011;21764;52.042;6.830;2023-07-24T01:02:51;5.97;;;4.10;;
35644;SDS011;21764;52.042;6.830;2023-07-24T01:07:53;9.70;;;4.78;;
35644;SDS011;21764;52.042;6.830;2023-07-24T01:18:29;11.35;;;4.40;;
35644;SDS011;21764;52.042;6.830;2023-07-24T01:28:53;7.03;;;4.85;;
35644;SDS011;21764;52.042;6.830;2023-07-24T01:33:54;4.35;;;3.67;;
35644;SDS011;21764;52.042;6.830;2023-07-24T01:38:55;5.82;;;4.03;;
35644;SDS011;21764;52.042;6.830;2023-07-24T01:43:58;9.23;;;4.13;;
35644;SDS011;21764;52.042;6.830;2023-07-24T01:48:59;9.25;;;4.20;;
35644;SDS011;21764;52.042;6.830;2023-07-24T01:54:00;9.98;;;4.15;;
35644;SDS011;21764;52.042;6.830;2023-07-24T01:59:00;5.75;;;4.35;;
35644;SDS011;21764;52.042;6.830;2023-07-24T02:04:01;8.50;;;4.35;;
35644;SDS011;21764;52.042;6.830;2023-07-24T02:09:02;8.02;;;4.40;;
35644;SDS011;21764;52.042;6.830;2023-07-24T02:14:03;7.28;;;3.92;;
35644;SDS011;21764;52.042;6.830;2023-07-24T02:19:03;5.30;;;4.30;;
35644;SDS011;21764;52.042;6.830;2023-07-24T02:24:04;9.48;;;5.00;;
35644;SDS011;21764;52.042;6.830;2023-07-24T02:29:05;8.27;;;5.13;;
35644;SDS011;21764;52.042;6.830;2023-07-24T02:34:05;9.63;;;5.00;;
35644;SDS011;21764;52.042;6.830;2023-07-24T02:39:06;12.20;;;5.22;;
35644;SDS011;21764;52.042;6.830;2023-07-24T02:44:07;9.95;;;5.60;;
35644;SDS011;21764;52.042;6.830;2023-07-24T02:49:08;9.45;;;5.55;;
35644;SDS011;21764;52.042;6.830;2023-07-24T02:54:09;8.90;;;5.50;;
35644;SDS011;21764;52.042;6.830;2023-07-24T02:59:09;12.82;;;5.70;;
35644;SDS011;21764;52.042;6.830;2023-07-24T03:04:10;9.73;;;5.63;;
35644;SDS011;21764;52.042;6.830;2023-07-24T03:09:11;14.35;;;6.47;;
35644;SDS011;21764;52.042;6.830;2023-07-24T03:14:11;13.60;;;6.97;;
35644;SDS011;21764;52.042;6.830;2023-07-24T03:19:12;14.98;;;6.85;;
35644;SDS011;21764;52.042;6.830;2023-07-24T03:24:13;16.88;;;6.97;;
35644;SDS011;21764;52.042;6.830;2023-07-24T03:29:13;14.38;;;7.05;;
35644;SDS011;21764;52.042;6.830;2023-07-24T03:34:14;18.45;;;8.60;;
35644;SDS011;21764;52.042;6.830;2023-07-24T03:39:15;11.43;;;7.85;;
35644;SDS011;21764;52.042;6.830;2023-07-24T03:44:16;11.60;;;7.75;;
35644;SDS011;21764;52.042;6.830;2023-07-24T03:49:16;12.30;;;7.47;;
35644;SDS011;21764;52.042;6.830;2023-07-24T03:54:17;15.50;;;7.85;;
35644;SDS011;21764;52.042;6.830;2023-07-24T03:59:17;12.05;;;7.32;;
35644;SDS011;21764;52.042;6.830;2023-07-24T04:04:18;9.80;;;6.93;;
35644;SDS011;21764;52.042;6.830;2023-07-24T04:09:20;13.40;;;7.43;;
35644;SDS011;21764;52.042;6.830;2023-07-24T04:14:21;9.30;;;6.30;;
35644;SDS011;21764;52.042;6.830;2023-07-24T04:19:21;9.55;;;5.93;;
35644;SDS011;21764;52.042;6.830;2023-07-24T04:24:22;8.70;;;5.13;;
35644;SDS011;21764;52.042;6.830;2023-07-24T04:29:23;8.48;;;5.38;;
35644;SDS011;21764;52.042;6.830;2023-07-24T04:34:25;8.27;;;5.25;;
35644;SDS011;21764;52.042;6.830;2023-07-24T04:39:26;11.75;;;5.00;;
35644;SDS011;21764;52.042;6.830;2023-07-24T04:44:27;6.60;;;4.45;;
35644;SDS011;21764;52.042;6.830;2023-07-24T04:49:30;9.27;;;4.32;;
35644;SDS011;21764;52.042;6.830;2023-07-24T04:54:32;11.80;;;4.82;;
35644;SDS011;21764;52.042;6.830;2023-07-24T04:59:33;10.43;;;4.32;;
35644;SDS011;21764;52.042;6.830;2023-07-24T05:04:34;8.27;;;4.25;;
35644;SDS011;21764;52.042;6.830;2023-07-24T05:09:34;7.65;;;4.80;;
35644;SDS011;21764;52.042;6.830;2023-07-24T05:14:35;8.90;;;4.70;;
35644;SDS011;21764;52.042;6.830;2023-07-24T05:19:36;5.68;;;4.20;;
35644;SDS011;21764;52.042;6.830;2023-07-24T05:24:37;8.75;;;4.70;;
35644;SDS011;21764;52.042;6.830;2023-07-24T05:29:37;7.55;;;4.82;;
35644;SDS011;21764;52.042;6.830;2023-07-24T05:34:38;10.55;;;4.70;;
35644;SDS011;21764;52.042;6.830;2023-07-24T05:39:38;6.90;;;4.22;;
35644;SDS011;21764;52.042;6.830;2023-07-24T05:44:39;5.50;;;3.83;;
35644;SDS011;21764;52.042;6.830;2023-07-24T05:49:40;5.43;;;3.88;;
35644;SDS011;21764;52.042;6.830;2023-07-24T05:54:40;4.25;;;3.00;;
35644;SDS011;21764;52.042;6.830;2023-07-24T05:59:41;5.10;;;3.08;;
35644;SDS011;21764;52.042;6.830;2023-07-24T06:04:42;4.20;;;3.25;;
35644;SDS011;21764;52.042;6.830;2023-07-24T06:09:42;3.70;;;3.28;;
35644;SDS011;21764;52.042;6.830;2023-07-24T06:14:43;3.92;;;3.30;;
35644;SDS011;21764;52.042;6.830;2023-07-24T06:19:44;5.45;;;4.07;;
35644;SDS011;21764;52.042;6.830;2023-07-24T06:24:44;6.70;;;4.53;;
35644;SDS011;21764;52.042;6.830;2023-07-24T06:29:45;5.88;;;4.72;;
35644;SDS011;21764;52.042;6.830;2023-07-24T06:34:46;4.60;;;4.20;;
35644;SDS011;21764;52.042;6.830;2023-07-24T06:39:46;5.72;;;5.00;;
35644;SDS011;21764;52.042;6.830;2023-07-24T06:44:47;6.10;;;4.95;;
35644;SDS011;21764;52.042;6.830;2023-07-24T06:49:48;6.82;;;4.95;;
35644;SDS011;21764;52.042;6.830;2023-07-24T06:54:48;9.55;;;5.07;;
35644;SDS011;21764;52.042;6.830;2023-07-24T06:59:49;4.50;;;3.70;;
35644;SDS011;21764;52.042;6.830;2023-07-24T07:04:50;4.97;;;3.90;;
35644;SDS011;21764;52.042;6.830;2023-07-24T07:09:50;5.57;;;3.45;;
35644;SDS011;21764;52.042;6.830;2023-07-24T07:14:51;5.53;;;4.43;;
35644;SDS011;21764;52.042;6.830;2023-07-24T07:19:51;5.03;;;4.35;;
35644;SDS011;21764;52.042;6.830;2023-07-24T07:24:52;7.40;;;5.22;;
35644;SDS011;21764;52.042;6.830;2023-07-24T07:29:53;7.05;;;5.78;;
35644;SDS011;21764;52.042;6.830;2023-07-24T07:34:53;7.13;;;5.75;;
35644;SDS011;21764;52.042;6.830;2023-07-24T07:39:54;8.52;;;6.00;;
35644;SDS011;21764;52.042;6.830;2023-07-24T07:44:55;9.23;;;6.82;;
35644;SDS011;21764;52.042;6.830;2023-07-24T07:49:55;7.25;;;5.97;;
35644;SDS011;21764;52.042;6.830;2023-07-24T07:54:56;9.00;;;6.07;;
35644;SDS011;21764;52.042;6.830;2023-07-24T07:59:57;8.25;;;6.00;;
35644;SDS011;21764;52.042;6.830;2023-07-24T08:04:57;9.32;;;5.30;;
35644;SDS011;21764;52.042;6.830;2023-07-24T08:09:58;10.68;;;6.90;;
35644;SDS011;21764;52.042;6.830;2023-07-24T08:14:59;10.55;;;7.03;;
35644;SDS011;21764;52.042;6.830;2023-07-24T08:19:59;10.77;;;7.07;;
35644;SDS011;21764;52.042;6.830;2023-07-24T08:25:00;9.80;;;6.97;;
35644;SDS011;21764;52.042;6.830;2023-07-24T08:30:01;11.05;;;6.50;;
35644;SDS011;21764;52.042;6.830;2023-07-24T08:35:01;5.55;;;4.78;;
35644;SDS011;21764;52.042;6.830;2023-07-24T08:40:02;7.38;;;5.25;;
35644;SDS011;21764;52.042;6.830;2023-07-24T08:45:05;9.82;;;6.30;;
35644;SDS011;21764;52.042;6.830;2023-07-24T08:50:13;8.57;;;6.32;;
35644;SDS011;21764;52.042;6.830;2023-07-24T08:55:15;10.10;;;6.75;;
35644;SDS011;21764;52.042;6.830;2023-07-24T09:00:16;12.13;;;7.78;;
35644;SDS011;21764;52.042;6.830;2023-07-24T09:05:17;11.90;;;9.10;;
35644;SDS011;21764;52.042;6.830;2023-07-24T09:10:23;11.00;;;8.02;;
35644;SDS011;21764;52.042;6.830;2023-07-24T09:15:27;13.68;;;9.30;;
35644;SDS011;21764;52.042;6.830;2023-07-24T09:20:37;11.65;;;9.25;;
35644;SDS011;21764;52.042;6.830;2023-07-24T09:25:43;13.90;;;10.90;;
35644;SDS011;21764;52.042;6.830;2023-07-24T09:30:51;17.70;;;12.68;;
35644;SDS011;21764;52.042;6.830;2023-07-24T09:35:56;18.33;;;13.27;;
35644;SDS011;21764;52.042;6.830;2023-07-24T09:41:00;19.35;;;13.45;;
35644;SDS011;21764;52.042;6.830;2023-07-24T09:46:04;16.27;;;12.47;;
35644;SDS011;21764;52.042;6.830;2023-07-24T09:51:08;21.42;;;13.10;;
35644;SDS011;21764;52.042;6.830;2023-07-24T09:56:12;17.27;;;12.18;;
35644;SDS011;21764;52.042;6.830;2023-07-24T10:01:15;18.40;;;12.30;;
35644;SDS011;21764;52.042;6.830;2023-07-24T10:06:16;18.60;;;14.15;;
35644;SDS011;21764;52.042;6.830;2023-07-24T10:11:17;16.10;;;11.90;;
35644;SDS011;21764;52.042;6.830;2023-07-24T10:16:19;14.15;;;9.27;;
35644;SDS011;21764;52.042;6.830;2023-07-24T10:21:25;8.13;;;6.68;;
35644;SDS011;21764;52.042;6.830;2023-07-24T10:26:27;12.25;;;9.15;;
35644;SDS011;21764;52.042;6.830;2023-07-24T10:31:28;7.38;;;5.20;;
35644;SDS011;21764;52.042;6.830;2023-07-24T10:36:32;6.65;;;5.95;;
35644;SDS011;21764;52.042;6.830;2023-07-24T10:41:35;8.30;;;5.97;;
35644;SDS011;21764;52.042;6.830;2023-07-24T10:51:37;6.68;;;4.85;;
35644;SDS011;21764;52.042;6.830;2023-07-24T10:56:38;11.35;;;5.20;;
35644;SDS011;21764;52.042;6.830;2023-07-24T11:01:39;7.75;;;4.88;;
35644;SDS011;21764;52.042;6.830;2023-07-24T11:06:39;5.75;;;4.90;;
35644;SDS011;21764;52.042;6.830;2023-07-24T11:11:40;6.55;;;5.05;;
35644;SDS011;21764;52.042;6.830;2023-07-24T11:16:50;9.25;;;4.93;;
35644;SDS011;21764;52.042;6.830;2023-07-24T11:21:50;11.27;;;5.40;;
35644;SDS011;21764;52.042;6.830;2023-07-24T11:26:51;6.65;;;5.68;;
35644;SDS011;21764;52.042;6.830;2023-07-24T11:31:55;8.20;;;5.60;;
35644;SDS011;21764;52.042;6.830;2023-07-24T11:36:56;8.48;;;4.95;;
35644;SDS011;21764;52.042;6.830;2023-07-24T11:41:58;10.32;;;5.03;;
35644;SDS011;21764;52.042;6.830;2023-07-24T11:47:04;10.50;;;5.68;;
35644;SDS011;21764;52.042;6.830;2023-07-24T11:52:05;7.72;;;5.60;;
35644;SDS011;21764;52.042;6.830;2023-07-24T11:57:16;9.23;;;5.25;;
35644;SDS011;21764;52.042;6.830;2023-07-24T12:02:18;5.45;;;4.65;;
35644;SDS011;21764;52.042;6.830;2023-07-24T12:07:18;7.28;;;4.82;;
35644;SDS011;21764;52.042;6.830;2023-07-24T12:12:19;7.70;;;4.53;;
35644;SDS011;21764;52.042;6.830;2023-07-24T12:17:20;7.40;;;5.45;;
35644;SDS011;21764;52.042;6.830;2023-07-24T12:22:21;6.05;;;4.55;;
35644;SDS011;21764;52.042;6.830;2023-07-24T12:27:22;9.75;;;4.80;;
35644;SDS011;21764;52.042;6.830;2023-07-24T12:32:23;7.75;;;5.35;;
35644;SDS011;21764;52.042;6.830;2023-07-24T12:37:24;8.43;;;6.38;;
35644;SDS011;21764;52.042;6.830;2023-07-24T12:42:24;7.18;;;5.40;;
35644;SDS011;21764;52.042;6.830;2023-07-24T12:47:26;6.18;;;5.57;;
35644;SDS011;21764;52.042;6.830;2023-07-24T12:52:28;11.38;;;5.97;;
35644;SDS011;21764;52.042;6.830;2023-07-24T12:57:29;7.47;;;6.03;;
35644;SDS011;21764;52.042;6.830;2023-07-24T13:02:30;5.78;;;5.10;;
35644;SDS011;21764;52.042;6.830;2023-07-24T13:07:32;8.70;;;5.60;;
35644;SDS011;21764;52.042;6.830;2023-07-24T13:12:32;9.80;;;5.40;;
35644;SDS011;21764;52.042;6.830;2023-07-24T13:17:33;10.38;;;5.63;;
35644;SDS011;21764;52.042;6.830;2023-07-24T13:22:35;7.55;;;5.30;;
35644;SDS011;21764;52.042;6.830;2023-07-24T13:27:35;5.72;;;4.53;;
35644;SDS011;21764;52.042;6.830;2023-07-24T13:32:36;9.18;;;6.03;;
35644;SDS011;21764;52.042;6.830;2023-07-24T13:37:37;9.52;;;4.85;;
35644;SDS011;21764;52.042;6.830;2023-07-24T13:42:37;7.75;;;5.07;;
35644;SDS011;21764;52.042;6.830;2023-07-24T13:47:38;8.93;;;6.13;;
35644;SDS011;21764;52.042;6.830;2023-07-24T13:52:39;9.57;;;6.35;;
35644;SDS011;21764;52.042;6.830;2023-07-24T13:57:39;12.57;;;6.05;;
35644;SDS011;21764;52.042;6.830;2023-07-24T14:02:40;9.20;;;6.18;;
35644;SDS011;21764;52.042;6.830;2023-07-24T14:07:40;8.23;;;5.40;;
35644;SDS011;21764;52.042;6.830;2023-07-24T14:12:41;9.40;;;6.63;;
35644;SDS011;21764;52.042;6.830;2023-07-24T14:17:42;10.43;;;6.30;;
35644;SDS011;21764;52.042;6.830;2023-07-24T14:22:43;8.52;;;6.88;;
35644;SDS011;21764;52.042;6.830;2023-07-24T14:27:44;11.15;;;7.65;;
35644;SDS011;21764;52.042;6.830;2023-07-24T14:32:44;10.98;;;6.97;;
35644;SDS011;21764;52.042;6.830;2023-07-24T14:37:45;9.10;;;5.63;;
35644;SDS011;21764;52.042;6.830;2023-07-24T14:42:46;12.35;;;6.45;;
35644;SDS011;21764;52.042;6.830;2023-07-24T14:47:46;11.70;;;7.13;;
35644;SDS011;21764;52.042;6.830;2023-07-24T14:52:48;9.90;;;7.03;;
35644;SDS011;21764;52.042;6.830;2023-07-24T14:57:49;12.20;;;7.20;;
35644;SDS011;21764;52.042;6.830;2023-07-24T15:02:50;10.95;;;6.53;;
35644;SDS011;21764;52.042;6.830;2023-07-24T15:07:50;12.95;;;7.95;;
35644;SDS011;21764;52.042;6.830;2023-07-24T15:12:51;12.10;;;6.65;;
35644;SDS011;21764;52.042;6.830;2023-07-24T15:17:51;16.50;;;5.70;;
35644;SDS011;21764;52.042;6.830;2023-07-24T15:22:52;10.30;;;4.90;;
35644;SDS011;21764;52.042;6.830;2023-07-24T15:27:53;8.50;;;4.53;;
35644;SDS011;21764;52.042;6.830;2023-07-24T15:32:54;12.27;;;5.40;;
35644;SDS011;21764;52.042;6.830;2023-07-24T15:37:54;11.73;;;6.15;;
35644;SDS011;21764;52.042;6.830;2023-07-24T15:42:56;9.48;;;5.82;;
35644;SDS011;21764;52.042;6.830;2023-07-24T15:48:03;16.55;;;8.55;;
35644;SDS011;21764;52.042;6.830;2023-07-24T15:53:04;10.45;;;6.43;;
35644;SDS011;21764;52.042;6.830;2023-07-24T15:58:05;9.40;;;4.70;;
35644;SDS011;21764;52.042;6.830;2023-07-24T16:03:05;5.93;;;3.53;;
35644;SDS011;21764;52.042;6.830;2023-07-24T16:08:06;7.20;;;4.50;;
35644;SDS011;21764;52.042;6.830;2023-07-24T16:13:07;8.70;;;5.03;;
35644;SDS011;21764;52.042;6.830;2023-07-24T16:18:08;10.82;;;4.95;;
35644;SDS011;21764;52.042;6.830;2023-07-24T16:23:08;10.40;;;5.35;;
35644;SDS011;21764;52.042;6.830;2023-07-24T16:28:09;6.70;;;3.75;;
35644;SDS011;21764;52.042;6.830;2023-07-24T16:33:10;4.63;;;3.65;;
35644;SDS011;21764;52.042;6.830;2023-07-24T16:38:10;6.75;;;3.83;;
35644;SDS011;21764;52.042;6.830;2023-07-24T16:48:15;5.20;;;4.03;;
35644;SDS011;21764;52.042;6.830;2023-07-24T16:53:16;7.32;;;4.70;;
35644;SDS011;21764;52.042;6.830;2023-07-24T16:58:17;10.52;;;4.65;;
35644;SDS011;21764;52.042;6.830;2023-07-24T17:03:18;8.95;;;5.68;;
35644;SDS011;21764;52.042;6.830;2023-07-24T17:08:18;11.43;;;6.38;;
35644;SDS011;21764;52.042;6.830;2023-07-24T17:13:19;11.10;;;6.30;;
35644;SDS011;21764;52.042;6.830;2023-07-24T17:18:23;14.88;;;6.80;;
35644;SDS011;21764;52.042;6.830;2023-07-24T17:23:25;12.57;;;7.88;;
35644;SDS011;21764;52.042;6.830;2023-07-24T17:28:25;10.20;;;7.07;;
35644;SDS011;21764;52.042;6.830;2023-07-24T17:33:26;10.30;;;7.68;;
35644;SDS011;21764;52.042;6.830;2023-07-24T17:38:27;15.93;;;8.02;;
35644;SDS011;21764;52.042;6.830;2023-07-24T17:43:28;10.10;;;6.38;;
35644;SDS011;21764;52.042;6.830;2023-07-24T17:48:29;7.32;;;5.82;;
35644;SDS011;21764;52.042;6.830;2023-07-24T17:53:31;10.50;;;5.18;;
35644;SDS011;21764;52.042;6.830;2023-07-24T17:58:32;7.75;;;5.03;;
35644;SDS011;21764;52.042;6.830;2023-07-24T18:03:32;13.13;;;5.93;;
35644;SDS011;21764;52.042;6.830;2023-07-24T18:08:33;9.82;;;4.82;;
35644;SDS011;21764;52.042;6.830;2023-07-24T18:13:33;6.90;;;2.67;;
35644;SDS011;21764;52.042;6.830;2023-07-24T18:18:34;8.55;;;2.40;;
35644;SDS011;21764;52.042;6.830;2023-07-24T18:23:35;14.07;;;3.05;;
35644;SDS011;21764;52.042;6.830;2023-07-24T18:28:36;7.82;;;2.63;;
35644;SDS011;21764;52.042;6.830;2023-07-24T18:33:36;12.55;;;2.65;;
35644;SDS011;21764;52.042;6.830;2023-07-24T18:38:37;8.73;;;2.67;;
35644;SDS011;21764;52.042;6.830;2023-07-24T18:43:38;8.65;;;2.53;;
35644;SDS011;21764;52.042;6.830;2023-07-24T18:48:38;8.98;;;2.90;;
35644;SDS011;21764;52.042;6.830;2023-07-24T18:53:39;10.70;;;2.80;;
35644;SDS011;21764;52.042;6.830;2023-07-24T18:58:40;8.60;;;2.33;;
35644;SDS011;21764;52.042;6.830;2023-07-24T19:03:43;7.85;;;2.50;;
35644;SDS011;21764;52.042;6.830;2023-07-24T19:08:45;10.82;;;2.78;;
35644;SDS011;21764;52.042;6.830;2023-07-24T19:13:46;7.95;;;2.42;;
35644;SDS011;21764;52.042;6.830;2023-07-24T19:18:47;6.53;;;2.33;;
35644;SDS011;21764;52.042;6.830;2023-07-24T19:23:48;8.75;;;3.00;;
35644;SDS011;21764;52.042;6.830;2023-07-24T19:28:49;10.00;;;2.47;;
35644;SDS011;21764;52.042;6.830;2023-07-24T19:33:50;7.20;;;2.47;;
35644;SDS011;21764;52.042;6.830;2023-07-24T19:38:50;8.38;;;2.30;;
35644;SDS011;21764;52.042;6.830;2023-07-24T19:43:51;11.45;;;2.50;;
35644;SDS011;21764;52.042;6.830;2023-07-24T19:48:52;13.15;;;2.50;;
35644;SDS011;21764;52.042;6.830;2023-07-24T19:53:53;6.88;;;2.22;;
35644;SDS011;21764;52.042;6.830;2023-07-24T19:58:53;11.40;;;2.92;;
35644;SDS011;21764;52.042;6.830;2023-07-24T20:03:54;20.40;;;2.60;;
35644;SDS011;21764;52.042;6.830;2023-07-24T20:08:55;9.10;;;2.80;;
35644;SDS011;21764;52.042;6.830;2023-07-24T20:13:55;7.88;;;2.08;;
35644;SDS011;21764;52.042;6.830;2023-07-24T20:18:56;4.88;;;2.30;;
35644;SDS011;21764;52.042;6.830;2023-07-24T20:24:07;10.50;;;2.20;;
35644;SDS011;21764;52.042;6.830;2023-07-24T20:29:09;6.10;;;2.17;;
35644;SDS011;21764;52.042;6.830;2023-07-24T20:34:10;5.80;;;1.85;;
35644;SDS011;21764;52.042;6.830;2023-07-24T20:39:10;8.43;;;2.10;;
35644;SDS011;21764;52.042;6.830;2023-07-24T20:44:17;6.85;;;2.38;;
35644;SDS011;21764;52.042;6.830;2023-07-24T20:49:17;9.13;;;2.80;;
35644;SDS011;21764;52.042;6.830;2023-07-24T20:54:18;9.45;;;2.45;;
35644;SDS011;21764;52.042;6.830;2023-07-24T20:59:19;8.20;;;2.80;;
35644;SDS011;21764;52.042;6.830;2023-07-24T21:04:19;8.23;;;3.67;;
35644;SDS011;21764;52.042;6.830;2023-07-24T21:09:20;8.23;;;2.90;;
35644;SDS011;21764;52.042;6.830;2023-07-24T21:14:21;7.35;;;3.47;;
35644;SDS011;21764;52.042;6.830;2023-07-24T21:19:21;5.30;;;2.92;;
35644;SDS011;21764;52.042;6.830;2023-07-24T21:24:22;8.75;;;2.90;;
35644;SDS011;21764;52.042;6.830;2023-07-24T21:29:23;14.10;;;3.17;;
35644;SDS011;21764;52.042;6.830;2023-07-24T21:34:24;6.50;;;2.90;;
35644;SDS011;21764;52.042;6.830;2023-07-24T21:39:24;13.13;;;3.13;;
35644;SDS011;21764;52.042;6.830;2023-07-24T21:44:25;5.60;;;3.30;;
35644;SDS011;21764;52.042;6.830;2023-07-24T21:49:26;6.57;;;3.20;;
35644;SDS011;21764;52.042;6.830;2023-07-24T21:54:26;8.90;;;2.92;;
35644;SDS011;21764;52.042;6.830;2023-07-24T21:59:27;9.48;;;3.35;;
35644;SDS011;21764;52.042;6.830;2023-07-24T22:04:28;8.52;;;3.70;;
35644;SDS011;21764;52.042;6.830;2023-07-24T22:09:29;8.85;;;3.80;;
35644;SDS011;21764;52.042;6.830;2023-07-24T22:14:30;11.70;;;3.75;;
35644;SDS011;21764;52.042;6.830;2023-07-24T22:19:30;15.55;;;3.90;;
35644;SDS011;21764;52.042;6.830;2023-07-24T22:24:31;10.82;;;3.70;;
35644;SDS011;21764;52.042;6.830;2023-07-24T22:29:33;10.35;;;4.07;;
35644;SDS011;21764;52.042;6.830;2023-07-24T22:34:34;8.88;;;4.20;;
35644;SDS011;21764;52.042;6.830;2023-07-24T22:39:35;18.00;;;4.60;;
35644;SDS011;21764;52.042;6.830;2023-07-24T22:44:36;12.70;;;4.00;;
35644;SDS011;21764;52.042;6.830;2023-07-24T22:49:37;15.43;;;4.10;;
35644;SDS011;21764;52.042;6.830;2023-07-24T22:54:38;8.27;;;4.03;;
35644;SDS011;21764;52.042;6.830;2023-07-24T22:59:38;11.05;;;3.83;;
35644;SDS011;21764;52.042;6.830;2023-07-24T23:04:39;15.50;;;3.92;;
35644;SDS011;21764;52.042;6.830;2023-07-24T23:09:40;10.45;;;3.30;;
35644;SDS011;21764;52.042;6.830;2023-07-24T23:14:40;10.15;;;3.70;;
35644;SDS011;21764;52.042;6.830;2023-07-24T23:19:41;9.40;;;4.00;;
35644;SDS011;21764;52.042;6.830;2023-07-24T23:24:41;7.35;;;3.60;;
35644;SDS011;21764;52.042;6.830;2023-07-24T23:29:42;10.18;;;4.07;;
35644;SDS011;21764;52.042;6.830;2023-07-24T23:34:43;16.52;;;3.78;;
35644;SDS011;21764;52.042;6.830;2023-07-24T23:39:43;12.18;;;3.88;;
35644;SDS011;21764;52.042;6.830;2023-07-24T23:44:44;15.70;;;4.38;;
35644;SDS011;21764;52.042;6.830;2023-07-24T23:49:45;15.75;;;4.47;;
35644;SDS011;21764;52.042;6.830;2023-07-24T23:54:45;21.60;;;5.05;;
35644;SDS011;21764;52.042;6.830;2023-07-24T23:59:46;11.77;;;4.25;;
